sensor_id;sensor_type;location;lat;lon;timestamp;temperature;humidity
18613;DHT22;9436;52.152;21.032;2022-07-29T00:01:01;17.40;99.90
18613;DHT22;9436;52.152;21.032;2022-07-29T00:03:28;17.40;99.90
18613;DHT22;9436;52.152;21.032;2022-07-29T00:05:55;17.40;99.90
18613;DHT22;9436;52.152;21.032;2022-07-29T00:08:24;17.30;99.90
18613;DHT22;9436;52.152;21.032;2022-07-29T00:10:51;17.30;99.90
18613;DHT22;9436;52.152;21.032;2022-07-29T00:13:18;17.20;99.90
18613;DHT22;9436;52.152;21.032;2022-07-29T00:15:45;17.10;99.90
18613;DHT22;9436;52.152;21.032;2022-07-29T00:18:12;17.10;99.90
18613;DHT22;9436;52.152;21.032;2022-07-29T00:20:39;17.10;99.90
18613;DHT22;9436;52.152;21.032;2022-07-29T00:23:06;17.10;99.90
18613;DHT22;9436;52.152;21.032;2022-07-29T00:25:34;17.10;99.90
18613;DHT22;9436;52.152;21.032;2022-07-29T00:28:01;17.10;99.90
18613;DHT22;9436;52.152;21.032;2022-07-29T00:30:28;17.10;99.90
18613;DHT22;9436;52.152;21.032;2022-07-29T00:32:55;17.10;99.90
18613;DHT22;9436;52.152;21.032;2022-07-29T00:35:22;17.10;99.90
18613;DHT22;9436;52.152;21.032;2022-07-29T00:38:06;17.10;99.90
18613;DHT22;9436;52.152;21.032;2022-07-29T00:40:35;17.10;99.90
18613;DHT22;9436;52.152;21.032;2022-07-29T00:43:02;17.10;99.90
18613;DHT22;9436;52.152;21.032;2022-07-29T00:45:29;17.10;99.90
18613;DHT22;9436;52.152;21.032;2022-07-29T00:47:56;17.10;99.90
18613;DHT22;9436;52.152;21.032;2022-07-29T00:50:23;17.10;99.90
18613;DHT22;9436;52.152;21.032;2022-07-29T00:52:51;17.10;99.90
18613;DHT22;9436;52.152;21.032;2022-07-29T00:55:19;17.00;99.90
18613;DHT22;9436;52.152;21.032;2022-07-29T00:57:47;17.00;99.90
18613;DHT22;9436;52.152;21.032;2022-07-29T01:00:16;17.10;99.90
18613;DHT22;9436;52.152;21.032;2022-07-29T01:02:44;17.00;99.90
18613;DHT22;9436;52.152;21.032;2022-07-29T01:05:15;17.00;99.90
18613;DHT22;9436;52.152;21.032;2022-07-29T01:07:43;17.00;99.90
18613;DHT22;9436;52.152;21.032;2022-07-29T01:10:12;16.80;99.90
18613;DHT22;9436;52.152;21.032;2022-07-29T01:12:40;16.90;99.90
18613;DHT22;9436;52.152;21.032;2022-07-29T01:15:09;16.80;99.90
18613;DHT22;9436;52.152;21.032;2022-07-29T01:17:42;16.80;99.90
18613;DHT22;9436;52.152;21.032;2022-07-29T01:20:13;16.80;99.90
18613;DHT22;9436;52.152;21.032;2022-07-29T01:23:01;16.80;99.90
18613;DHT22;9436;52.152;21.032;2022-07-29T01:25:45;16.70;99.90
18613;DHT22;9436;52.152;21.032;2022-07-29T01:28:47;16.70;99.90
18613;DHT22;9436;52.152;21.032;2022-07-29T01:31:18;16.60;99.90
18613;DHT22;9436;52.152;21.032;2022-07-29T01:33:54;16.70;99.90
18613;DHT22;9436;52.152;21.032;2022-07-29T01:36:25;16.70;99.90
18613;DHT22;9436;52.152;21.032;2022-07-29T01:38:58;16.60;99.90
18613;DHT22;9436;52.152;21.032;2022-07-29T01:41:32;16.50;99.90
18613;DHT22;9436;52.152;21.032;2022-07-29T01:44:06;16.50;99.90
18613;DHT22;9436;52.152;21.032;2022-07-29T01:46:39;16.50;99.90
18613;DHT22;9436;52.152;21.032;2022-07-29T01:49:11;16.40;99.90
18613;DHT22;9436;52.152;21.032;2022-07-29T01:51:43;16.50;99.90
18613;DHT22;9436;52.152;21.032;2022-07-29T01:54:16;16.50;99.90
18613;DHT22;9436;52.152;21.032;2022-07-29T01:56:48;16.50;99.90
18613;DHT22;9436;52.152;21.032;2022-07-29T01:59:18;16.50;99.90
18613;DHT22;9436;52.152;21.032;2022-07-29T02:01:46;16.50;99.90
18613;DHT22;9436;52.152;21.032;2022-07-29T02:04:16;16.40;99.90
18613;DHT22;9436;52.152;21.032;2022-07-29T02:06:44;16.50;99.90
18613;DHT22;9436;52.152;21.032;2022-07-29T02:09:14;16.50;99.90
18613;DHT22;9436;52.152;21.032;2022-07-29T02:11:46;16.50;99.90
18613;DHT22;9436;52.152;21.032;2022-07-29T02:14:15;16.50;99.90
18613;DHT22;9436;52.152;21.032;2022-07-29T02:16:44;16.40;99.90
18613;DHT22;9436;52.152;21.032;2022-07-29T02:19:12;16.50;99.90
18613;DHT22;9436;52.152;21.032;2022-07-29T02:21:40;16.40;99.90
18613;DHT22;9436;52.152;21.032;2022-07-29T02:24:11;16.40;99.90
18613;DHT22;9436;52.152;21.032;2022-07-29T02:26:40;16.40;99.90
18613;DHT22;9436;52.152;21.032;2022-07-29T02:29:08;16.50;99.90
18613;DHT22;9436;52.152;21.032;2022-07-29T02:31:37;16.50;99.90
18613;DHT22;9436;52.152;21.032;2022-07-29T02:34:08;16.50;99.90
18613;DHT22;9436;52.152;21.032;2022-07-29T02:36:37;16.50;99.90
18613;DHT22;9436;52.152;21.032;2022-07-29T02:39:05;16.30;99.90
18613;DHT22;9436;52.152;21.032;2022-07-29T02:41:37;16.40;99.90
18613;DHT22;9436;52.152;21.032;2022-07-29T02:44:10;16.30;99.90
18613;DHT22;9436;52.152;21.032;2022-07-29T02:46:38;16.30;99.90
18613;DHT22;9436;52.152;21.032;2022-07-29T02:49:16;16.30;99.90
18613;DHT22;9436;52.152;21.032;2022-07-29T02:51:54;16.30;99.90
18613;DHT22;9436;52.152;21.032;2022-07-29T02:54:25;16.20;99.90
18613;DHT22;9436;52.152;21.032;2022-07-29T02:56:54;16.10;99.90
18613;DHT22;9436;52.152;21.032;2022-07-29T02:59:26;16.10;99.90
18613;DHT22;9436;52.152;21.032;2022-07-29T03:01:55;16.00;99.90
18613;DHT22;9436;52.152;21.032;2022-07-29T03:04:27;16.00;99.90
18613;DHT22;9436;52.152;21.032;2022-07-29T03:06:55;16.00;99.90
18613;DHT22;9436;52.152;21.032;2022-07-29T03:09:25;16.00;99.90
18613;DHT22;9436;52.152;21.032;2022-07-29T03:11:54;15.90;99.90
18613;DHT22;9436;52.152;21.032;2022-07-29T03:14:21;15.90;99.90
18613;DHT22;9436;52.152;21.032;2022-07-29T03:16:50;16.00;99.90
18613;DHT22;9436;52.152;21.032;2022-07-29T03:19:18;16.00;99.90
18613;DHT22;9436;52.152;21.032;2022-07-29T03:21:47;15.90;99.90
18613;DHT22;9436;52.152;21.032;2022-07-29T03:24:27;16.00;99.90
18613;DHT22;9436;52.152;21.032;2022-07-29T03:26:55;15.90;99.90
18613;DHT22;9436;52.152;21.032;2022-07-29T03:29:22;15.90;99.90
18613;DHT22;9436;52.152;21.032;2022-07-29T03:31:50;15.90;99.90
18613;DHT22;9436;52.152;21.032;2022-07-29T03:34:17;15.90;99.90
18613;DHT22;9436;52.152;21.032;2022-07-29T03:36:44;16.00;99.90
18613;DHT22;9436;52.152;21.032;2022-07-29T03:39:15;16.00;99.90
18613;DHT22;9436;52.152;21.032;2022-07-29T03:41:45;16.00;99.90
18613;DHT22;9436;52.152;21.032;2022-07-29T03:44:14;16.00;99.90
18613;DHT22;9436;52.152;21.032;2022-07-29T03:46:43;16.00;99.90
18613;DHT22;9436;52.152;21.032;2022-07-29T03:49:11;15.90;99.90
18613;DHT22;9436;52.152;21.032;2022-07-29T03:51:39;15.90;99.90
18613;DHT22;9436;52.152;21.032;2022-07-29T03:54:06;15.90;99.90
18613;DHT22;9436;52.152;21.032;2022-07-29T03:56:39;16.00;99.90
18613;DHT22;9436;52.152;21.032;2022-07-29T03:59:07;15.90;99.90
18613;DHT22;9436;52.152;21.032;2022-07-29T04:01:35;16.10;99.90
18613;DHT22;9436;52.152;21.032;2022-07-29T04:04:02;16.00;99.90
18613;DHT22;9436;52.152;21.032;2022-07-29T04:06:38;16.10;99.90
18613;DHT22;9436;52.152;21.032;2022-07-29T04:09:05;16.00;99.90
18613;DHT22;9436;52.152;21.032;2022-07-29T04:11:32;16.00;99.90
18613;DHT22;9436;52.152;21.032;2022-07-29T04:14:01;16.00;99.90
18613;DHT22;9436;52.152;21.032;2022-07-29T04:16:28;16.00;99.90
18613;DHT22;9436;52.152;21.032;2022-07-29T04:18:55;16.10;99.90
18613;DHT22;9436;52.152;21.032;2022-07-29T04:21:22;16.10;99.90
18613;DHT22;9436;52.152;21.032;2022-07-29T04:23:49;16.20;99.90
18613;DHT22;9436;52.152;21.032;2022-07-29T04:26:16;16.20;99.90
18613;DHT22;9436;52.152;21.032;2022-07-29T04:28:43;16.30;99.90
18613;DHT22;9436;52.152;21.032;2022-07-29T04:31:12;16.40;99.90
18613;DHT22;9436;52.152;21.032;2022-07-29T04:33:39;16.40;99.90
18613;DHT22;9436;52.152;21.032;2022-07-29T04:36:06;16.40;99.90
18613;DHT22;9436;52.152;21.032;2022-07-29T04:38:33;16.40;99.90
18613;DHT22;9436;52.152;21.032;2022-07-29T04:41:00;16.40;99.90
18613;DHT22;9436;52.152;21.032;2022-07-29T04:43:27;16.50;99.90
18613;DHT22;9436;52.152;21.032;2022-07-29T04:45:54;16.50;99.90
18613;DHT22;9436;52.152;21.032;2022-07-29T04:48:22;16.60;99.90
18613;DHT22;9436;52.152;21.032;2022-07-29T04:50:49;16.70;99.90
18613;DHT22;9436;52.152;21.032;2022-07-29T04:53:16;16.80;99.90
18613;DHT22;9436;52.152;21.032;2022-07-29T04:55:44;16.80;99.90
18613;DHT22;9436;52.152;21.032;2022-07-29T04:58:11;17.00;99.90
18613;DHT22;9436;52.152;21.032;2022-07-29T05:00:39;17.10;99.90
18613;DHT22;9436;52.152;21.032;2022-07-29T05:03:06;17.20;99.90
18613;DHT22;9436;52.152;21.032;2022-07-29T05:05:34;17.30;99.90
18613;DHT22;9436;52.152;21.032;2022-07-29T05:08:01;17.30;99.90
18613;DHT22;9436;52.152;21.032;2022-07-29T05:10:28;17.40;99.90
18613;DHT22;9436;52.152;21.032;2022-07-29T05:12:55;17.50;99.90
18613;DHT22;9436;52.152;21.032;2022-07-29T05:15:22;17.60;99.90
18613;DHT22;9436;52.152;21.032;2022-07-29T05:17:49;17.70;99.90
18613;DHT22;9436;52.152;21.032;2022-07-29T05:20:16;17.80;99.90
18613;DHT22;9436;52.152;21.032;2022-07-29T05:22:45;17.80;99.90
18613;DHT22;9436;52.152;21.032;2022-07-29T05:25:12;17.80;99.90
18613;DHT22;9436;52.152;21.032;2022-07-29T05:27:39;18.00;99.90
18613;DHT22;9436;52.152;21.032;2022-07-29T05:30:07;18.00;99.90
18613;DHT22;9436;52.152;21.032;2022-07-29T05:32:34;18.20;99.90
18613;DHT22;9436;52.152;21.032;2022-07-29T05:35:01;18.40;99.90
18613;DHT22;9436;52.152;21.032;2022-07-29T05:37:28;18.50;99.90
18613;DHT22;9436;52.152;21.032;2022-07-29T05:39:56;18.60;99.90
18613;DHT22;9436;52.152;21.032;2022-07-29T05:42:25;18.70;99.90
18613;DHT22;9436;52.152;21.032;2022-07-29T05:44:52;18.80;99.90
18613;DHT22;9436;52.152;21.032;2022-07-29T05:47:19;19.00;99.90
18613;DHT22;9436;52.152;21.032;2022-07-29T05:49:46;19.10;99.90
18613;DHT22;9436;52.152;21.032;2022-07-29T05:52:13;19.20;99.90
18613;DHT22;9436;52.152;21.032;2022-07-29T05:54:40;19.20;99.90
18613;DHT22;9436;52.152;21.032;2022-07-29T05:57:15;19.40;99.90
18613;DHT22;9436;52.152;21.032;2022-07-29T05:59:42;19.40;99.90
18613;DHT22;9436;52.152;21.032;2022-07-29T06:02:09;19.40;99.90
18613;DHT22;9436;52.152;21.032;2022-07-29T06:04:36;19.40;99.90
18613;DHT22;9436;52.152;21.032;2022-07-29T06:07:04;19.50;99.90
18613;DHT22;9436;52.152;21.032;2022-07-29T06:09:31;19.60;99.90
18613;DHT22;9436;52.152;21.032;2022-07-29T06:11:58;19.70;99.90
18613;DHT22;9436;52.152;21.032;2022-07-29T06:14:27;19.60;99.90
18613;DHT22;9436;52.152;21.032;2022-07-29T06:16:54;19.80;99.90
18613;DHT22;9436;52.152;21.032;2022-07-29T06:19:21;19.80;99.90
18613;DHT22;9436;52.152;21.032;2022-07-29T06:21:48;19.80;99.90
18613;DHT22;9436;52.152;21.032;2022-07-29T06:24:15;20.00;99.90
18613;DHT22;9436;52.152;21.032;2022-07-29T06:26:43;20.20;99.90
18613;DHT22;9436;52.152;21.032;2022-07-29T06:29:10;20.20;99.90
18613;DHT22;9436;52.152;21.032;2022-07-29T06:31:39;20.30;99.90
18613;DHT22;9436;52.152;21.032;2022-07-29T06:34:06;20.20;99.90
18613;DHT22;9436;52.152;21.032;2022-07-29T06:36:35;20.30;99.90
18613;DHT22;9436;52.152;21.032;2022-07-29T06:39:04;20.50;99.90
18613;DHT22;9436;52.152;21.032;2022-07-29T06:41:31;20.70;99.90
18613;DHT22;9436;52.152;21.032;2022-07-29T06:43:58;20.90;99.90
18613;DHT22;9436;52.152;21.032;2022-07-29T06:46:25;21.00;99.90
18613;DHT22;9436;52.152;21.032;2022-07-29T06:48:54;21.10;99.90
18613;DHT22;9436;52.152;21.032;2022-07-29T06:51:21;21.20;99.90
18613;DHT22;9436;52.152;21.032;2022-07-29T06:53:49;21.30;99.90
18613;DHT22;9436;52.152;21.032;2022-07-29T06:56:16;21.40;99.90
18613;DHT22;9436;52.152;21.032;2022-07-29T06:58:43;21.60;99.90
18613;DHT22;9436;52.152;21.032;2022-07-29T07:01:10;21.60;99.90
18613;DHT22;9436;52.152;21.032;2022-07-29T07:06:29;21.80;99.90
18613;DHT22;9436;52.152;21.032;2022-07-29T07:08:56;21.80;99.90
18613;DHT22;9436;52.152;21.032;2022-07-29T07:11:23;21.80;99.90
18613;DHT22;9436;52.152;21.032;2022-07-29T07:13:50;21.90;99.90
18613;DHT22;9436;52.152;21.032;2022-07-29T07:16:17;22.00;99.90
18613;DHT22;9436;52.152;21.032;2022-07-29T07:18:44;22.10;99.90
18613;DHT22;9436;52.152;21.032;2022-07-29T07:21:11;22.10;99.90
18613;DHT22;9436;52.152;21.032;2022-07-29T07:23:40;22.20;99.90
18613;DHT22;9436;52.152;21.032;2022-07-29T07:26:07;22.30;99.90
18613;DHT22;9436;52.152;21.032;2022-07-29T07:28:34;22.30;99.90
18613;DHT22;9436;52.152;21.032;2022-07-29T07:31:01;22.40;99.90
18613;DHT22;9436;52.152;21.032;2022-07-29T07:33:28;22.40;99.90
18613;DHT22;9436;52.152;21.032;2022-07-29T07:35:55;22.60;99.90
18613;DHT22;9436;52.152;21.032;2022-07-29T07:38:21;22.70;99.90
18613;DHT22;9436;52.152;21.032;2022-07-29T07:40:50;22.60;99.90
18613;DHT22;9436;52.152;21.032;2022-07-29T07:43:17;22.80;99.90
18613;DHT22;9436;52.152;21.032;2022-07-29T07:45:44;22.80;99.90
18613;DHT22;9436;52.152;21.032;2022-07-29T07:48:11;22.90;99.90
18613;DHT22;9436;52.152;21.032;2022-07-29T07:50:38;22.90;99.90
18613;DHT22;9436;52.152;21.032;2022-07-29T07:53:05;22.90;99.90
18613;DHT22;9436;52.152;21.032;2022-07-29T07:55:32;23.00;99.90
18613;DHT22;9436;52.152;21.032;2022-07-29T07:58:00;23.10;99.90
18613;DHT22;9436;52.152;21.032;2022-07-29T08:00:27;23.20;99.90
18613;DHT22;9436;52.152;21.032;2022-07-29T08:02:54;23.20;99.90
18613;DHT22;9436;52.152;21.032;2022-07-29T08:05:21;23.00;99.90
18613;DHT22;9436;52.152;21.032;2022-07-29T08:07:48;23.00;99.90
18613;DHT22;9436;52.152;21.032;2022-07-29T08:10:16;23.00;99.90
18613;DHT22;9436;52.152;21.032;2022-07-29T08:13:06;23.00;99.90
18613;DHT22;9436;52.152;21.032;2022-07-29T08:15:34;23.00;99.90
18613;DHT22;9436;52.152;21.032;2022-07-29T08:18:02;23.10;99.90
18613;DHT22;9436;52.152;21.032;2022-07-29T08:20:29;23.10;99.90
18613;DHT22;9436;52.152;21.032;2022-07-29T08:22:57;23.20;99.90
18613;DHT22;9436;52.152;21.032;2022-07-29T08:25:24;23.20;99.90
18613;DHT22;9436;52.152;21.032;2022-07-29T08:27:51;23.40;99.90
18613;DHT22;9436;52.152;21.032;2022-07-29T08:30:19;23.60;99.90
18613;DHT22;9436;52.152;21.032;2022-07-29T08:32:47;23.60;99.90
18613;DHT22;9436;52.152;21.032;2022-07-29T08:35:16;23.80;99.90
18613;DHT22;9436;52.152;21.032;2022-07-29T08:37:43;23.90;99.90
18613;DHT22;9436;52.152;21.032;2022-07-29T08:40:10;24.10;99.90
18613;DHT22;9436;52.152;21.032;2022-07-29T08:42:37;24.20;99.90
18613;DHT22;9436;52.152;21.032;2022-07-29T08:45:06;24.00;99.90
18613;DHT22;9436;52.152;21.032;2022-07-29T08:47:34;24.00;99.90
18613;DHT22;9436;52.152;21.032;2022-07-29T08:50:04;24.10;99.90
18613;DHT22;9436;52.152;21.032;2022-07-29T08:52:35;24.30;99.90
18613;DHT22;9436;52.152;21.032;2022-07-29T08:55:03;24.40;99.90
18613;DHT22;9436;52.152;21.032;2022-07-29T08:57:31;24.30;99.90
18613;DHT22;9436;52.152;21.032;2022-07-29T08:59:59;24.30;99.90
18613;DHT22;9436;52.152;21.032;2022-07-29T09:02:29;24.40;99.90
18613;DHT22;9436;52.152;21.032;2022-07-29T09:05:01;24.40;99.90
18613;DHT22;9436;52.152;21.032;2022-07-29T09:07:29;24.40;99.90
18613;DHT22;9436;52.152;21.032;2022-07-29T09:09:55;24.50;99.90
18613;DHT22;9436;52.152;21.032;2022-07-29T09:12:23;24.60;99.90
18613;DHT22;9436;52.152;21.032;2022-07-29T09:14:50;24.50;99.90
18613;DHT22;9436;52.152;21.032;2022-07-29T09:17:17;24.60;99.90
18613;DHT22;9436;52.152;21.032;2022-07-29T09:19:45;24.70;99.90
18613;DHT22;9436;52.152;21.032;2022-07-29T09:22:28;24.80;99.90
18613;DHT22;9436;52.152;21.032;2022-07-29T09:24:57;24.80;99.90
18613;DHT22;9436;52.152;21.032;2022-07-29T09:27:25;24.80;99.90
18613;DHT22;9436;52.152;21.032;2022-07-29T09:29:56;24.80;99.90
18613;DHT22;9436;52.152;21.032;2022-07-29T09:32:24;24.50;99.90
18613;DHT22;9436;52.152;21.032;2022-07-29T09:35:16;24.50;99.90
18613;DHT22;9436;52.152;21.032;2022-07-29T09:37:45;24.70;99.90
18613;DHT22;9436;52.152;21.032;2022-07-29T09:40:14;24.90;99.90
18613;DHT22;9436;52.152;21.032;2022-07-29T09:42:42;25.00;99.90
18613;DHT22;9436;52.152;21.032;2022-07-29T09:45:10;25.30;99.90
18613;DHT22;9436;52.152;21.032;2022-07-29T09:47:45;25.50;99.90
18613;DHT22;9436;52.152;21.032;2022-07-29T09:50:14;25.40;99.90
18613;DHT22;9436;52.152;21.032;2022-07-29T09:52:47;25.60;99.90
18613;DHT22;9436;52.152;21.032;2022-07-29T09:55:15;25.80;99.90
18613;DHT22;9436;52.152;21.032;2022-07-29T09:57:43;25.60;99.90
18613;DHT22;9436;52.152;21.032;2022-07-29T10:00:12;25.40;99.90
18613;DHT22;9436;52.152;21.032;2022-07-29T10:02:41;25.40;99.90
18613;DHT22;9436;52.152;21.032;2022-07-29T10:05:18;25.30;99.90
18613;DHT22;9436;52.152;21.032;2022-07-29T10:07:48;25.20;99.90
18613;DHT22;9436;52.152;21.032;2022-07-29T10:10:23;25.10;99.90
18613;DHT22;9436;52.152;21.032;2022-07-29T10:12:53;25.10;99.90
18613;DHT22;9436;52.152;21.032;2022-07-29T10:15:22;25.00;99.90
18613;DHT22;9436;52.152;21.032;2022-07-29T10:17:50;25.10;99.90
18613;DHT22;9436;52.152;21.032;2022-07-29T10:20:18;25.00;99.90
18613;DHT22;9436;52.152;21.032;2022-07-29T10:22:47;24.90;99.90
18613;DHT22;9436;52.152;21.032;2022-07-29T10:25:16;25.10;99.90
18613;DHT22;9436;52.152;21.032;2022-07-29T10:27:43;25.00;99.90
18613;DHT22;9436;52.152;21.032;2022-07-29T10:30:12;25.10;99.90
18613;DHT22;9436;52.152;21.032;2022-07-29T10:32:49;25.10;99.90
18613;DHT22;9436;52.152;21.032;2022-07-29T10:35:49;25.30;99.90
18613;DHT22;9436;52.152;21.032;2022-07-29T10:38:44;25.50;99.90
18613;DHT22;9436;52.152;21.032;2022-07-29T10:41:18;25.60;99.90
18613;DHT22;9436;52.152;21.032;2022-07-29T10:43:55;25.50;99.90
18613;DHT22;9436;52.152;21.032;2022-07-29T10:46:25;25.70;99.90
18613;DHT22;9436;52.152;21.032;2022-07-29T10:49:14;25.80;99.90
18613;DHT22;9436;52.152;21.032;2022-07-29T10:51:56;25.60;99.90
18613;DHT22;9436;52.152;21.032;2022-07-29T10:54:45;25.80;99.90
18613;DHT22;9436;52.152;21.032;2022-07-29T10:57:34;25.80;99.90
18613;DHT22;9436;52.152;21.032;2022-07-29T11:00:36;25.80;99.90
18613;DHT22;9436;52.152;21.032;2022-07-29T11:03:03;25.90;99.90
18613;DHT22;9436;52.152;21.032;2022-07-29T11:05:51;26.00;99.90
18613;DHT22;9436;52.152;21.032;2022-07-29T11:08:20;25.70;99.90
18613;DHT22;9436;52.152;21.032;2022-07-29T11:10:51;25.70;99.90
18613;DHT22;9436;52.152;21.032;2022-07-29T11:16:22;25.60;99.90
18613;DHT22;9436;52.152;21.032;2022-07-29T11:19:19;25.70;99.90
18613;DHT22;9436;52.152;21.032;2022-07-29T11:21:46;25.70;99.90
18613;DHT22;9436;52.152;21.032;2022-07-29T11:24:16;25.70;99.90
18613;DHT22;9436;52.152;21.032;2022-07-29T11:26:46;25.80;99.90
18613;DHT22;9436;52.152;21.032;2022-07-29T11:29:32;25.80;99.90
18613;DHT22;9436;52.152;21.032;2022-07-29T11:32:08;25.70;99.90
18613;DHT22;9436;52.152;21.032;2022-07-29T11:34:36;25.80;99.90
18613;DHT22;9436;52.152;21.032;2022-07-29T11:37:22;25.80;99.90
18613;DHT22;9436;52.152;21.032;2022-07-29T11:40:14;25.90;99.90
18613;DHT22;9436;52.152;21.032;2022-07-29T11:42:47;25.90;99.90
18613;DHT22;9436;52.152;21.032;2022-07-29T11:45:22;26.00;99.90
18613;DHT22;9436;52.152;21.032;2022-07-29T11:47:55;26.20;99.90
18613;DHT22;9436;52.152;21.032;2022-07-29T11:50:29;26.30;99.90
18613;DHT22;9436;52.152;21.032;2022-07-29T11:52:56;26.40;99.90
18613;DHT22;9436;52.152;21.032;2022-07-29T11:55:24;26.50;99.90
18613;DHT22;9436;52.152;21.032;2022-07-29T11:57:54;26.60;99.90
18613;DHT22;9436;52.152;21.032;2022-07-29T12:00:24;26.80;99.90
18613;DHT22;9436;52.152;21.032;2022-07-29T12:02:51;27.00;99.90
18613;DHT22;9436;52.152;21.032;2022-07-29T12:05:19;26.70;99.80
18613;DHT22;9436;52.152;21.032;2022-07-29T12:07:46;26.70;99.20
18613;DHT22;9436;52.152;21.032;2022-07-29T12:10:14;26.60;99.70
18613;DHT22;9436;52.152;21.032;2022-07-29T12:12:41;26.80;99.30
18613;DHT22;9436;52.152;21.032;2022-07-29T12:15:17;26.70;99.40
18613;DHT22;9436;52.152;21.032;2022-07-29T12:17:46;26.60;99.00
18613;DHT22;9436;52.152;21.032;2022-07-29T12:20:13;26.60;99.10
18613;DHT22;9436;52.152;21.032;2022-07-29T12:22:48;26.70;99.10
18613;DHT22;9436;52.152;21.032;2022-07-29T12:25:15;27.00;99.30
18613;DHT22;9436;52.152;21.032;2022-07-29T12:27:44;27.20;99.50
18613;DHT22;9436;52.152;21.032;2022-07-29T12:30:14;27.30;99.60
18613;DHT22;9436;52.152;21.032;2022-07-29T12:32:45;27.30;98.40
18613;DHT22;9436;52.152;21.032;2022-07-29T12:35:14;27.30;97.70
18613;DHT22;9436;52.152;21.032;2022-07-29T12:37:42;27.20;97.80
18613;DHT22;9436;52.152;21.032;2022-07-29T12:40:13;26.80;98.00
18613;DHT22;9436;52.152;21.032;2022-07-29T12:42:41;26.50;98.40
18613;DHT22;9436;52.152;21.032;2022-07-29T12:45:29;26.30;98.50
18613;DHT22;9436;52.152;21.032;2022-07-29T12:47:57;26.40;98.80
18613;DHT22;9436;52.152;21.032;2022-07-29T12:50:24;26.20;99.10
18613;DHT22;9436;52.152;21.032;2022-07-29T12:52:51;26.10;99.30
18613;DHT22;9436;52.152;21.032;2022-07-29T12:55:39;26.20;99.20
18613;DHT22;9436;52.152;21.032;2022-07-29T12:58:07;26.40;99.30
18613;DHT22;9436;52.152;21.032;2022-07-29T13:00:34;26.40;99.40
18613;DHT22;9436;52.152;21.032;2022-07-29T13:03:02;26.60;99.30
18613;DHT22;9436;52.152;21.032;2022-07-29T13:05:47;26.80;99.30
18613;DHT22;9436;52.152;21.032;2022-07-29T13:08:17;27.10;98.80
18613;DHT22;9436;52.152;21.032;2022-07-29T13:10:45;27.40;98.30
18613;DHT22;9436;52.152;21.032;2022-07-29T13:13:14;27.50;97.60
18613;DHT22;9436;52.152;21.032;2022-07-29T13:15:43;27.60;97.90
18613;DHT22;9436;52.152;21.032;2022-07-29T13:18:37;27.20;98.30
18613;DHT22;9436;52.152;21.032;2022-07-29T13:21:11;27.10;98.30
18613;DHT22;9436;52.152;21.032;2022-07-29T13:23:38;27.20;97.90
18613;DHT22;9436;52.152;21.032;2022-07-29T13:26:05;27.30;98.20
18613;DHT22;9436;52.152;21.032;2022-07-29T13:28:33;27.10;97.80
18613;DHT22;9436;52.152;21.032;2022-07-29T13:31:00;27.00;98.30
18613;DHT22;9436;52.152;21.032;2022-07-29T13:33:27;26.90;98.30
18613;DHT22;9436;52.152;21.032;2022-07-29T13:35:57;26.80;98.80
18613;DHT22;9436;52.152;21.032;2022-07-29T13:38:24;26.80;98.20
18613;DHT22;9436;52.152;21.032;2022-07-29T13:40:50;26.80;98.40
18613;DHT22;9436;52.152;21.032;2022-07-29T13:43:17;27.20;98.50
18613;DHT22;9436;52.152;21.032;2022-07-29T13:45:44;27.50;98.30
18613;DHT22;9436;52.152;21.032;2022-07-29T13:48:11;27.60;97.80
18613;DHT22;9436;52.152;21.032;2022-07-29T13:50:38;27.80;97.70
18613;DHT22;9436;52.152;21.032;2022-07-29T13:53:07;27.70;97.30
18613;DHT22;9436;52.152;21.032;2022-07-29T13:55:34;27.60;97.60
18613;DHT22;9436;52.152;21.032;2022-07-29T13:58:01;27.70;97.00
18613;DHT22;9436;52.152;21.032;2022-07-29T14:00:28;27.30;97.30
18613;DHT22;9436;52.152;21.032;2022-07-29T14:02:55;27.00;97.60
18613;DHT22;9436;52.152;21.032;2022-07-29T14:05:22;27.10;97.90
18613;DHT22;9436;52.152;21.032;2022-07-29T14:07:49;27.10;97.70
18613;DHT22;9436;52.152;21.032;2022-07-29T14:10:17;27.20;97.30
18613;DHT22;9436;52.152;21.032;2022-07-29T14:12:44;27.40;98.00
18613;DHT22;9436;52.152;21.032;2022-07-29T14:15:11;27.50;97.10
18613;DHT22;9436;52.152;21.032;2022-07-29T14:17:38;27.50;97.00
18613;DHT22;9436;52.152;21.032;2022-07-29T14:20:06;27.50;97.50
18613;DHT22;9436;52.152;21.032;2022-07-29T14:22:33;27.50;97.10
18613;DHT22;9436;52.152;21.032;2022-07-29T14:25:00;27.60;96.80
18613;DHT22;9436;52.152;21.032;2022-07-29T14:27:28;27.80;97.00
18613;DHT22;9436;52.152;21.032;2022-07-29T14:29:55;27.70;96.40
18613;DHT22;9436;52.152;21.032;2022-07-29T14:32:22;27.30;96.70
18613;DHT22;9436;52.152;21.032;2022-07-29T14:34:49;27.30;97.10
18613;DHT22;9436;52.152;21.032;2022-07-29T14:37:16;27.20;97.40
18613;DHT22;9436;52.152;21.032;2022-07-29T14:39:43;27.20;97.70
18613;DHT22;9436;52.152;21.032;2022-07-29T14:42:10;27.30;97.40
18613;DHT22;9436;52.152;21.032;2022-07-29T14:44:40;27.30;96.80
18613;DHT22;9436;52.152;21.032;2022-07-29T14:47:07;27.10;96.90
18613;DHT22;9436;52.152;21.032;2022-07-29T14:49:34;27.00;96.90
18613;DHT22;9436;52.152;21.032;2022-07-29T14:52:02;26.80;96.10
18613;DHT22;9436;52.152;21.032;2022-07-29T14:54:29;26.60;97.00
18613;DHT22;9436;52.152;21.032;2022-07-29T14:56:56;26.60;97.00
18613;DHT22;9436;52.152;21.032;2022-07-29T14:59:23;26.70;97.00
18613;DHT22;9436;52.152;21.032;2022-07-29T15:01:51;26.70;97.20
18613;DHT22;9436;52.152;21.032;2022-07-29T15:04:19;26.60;97.40
18613;DHT22;9436;52.152;21.032;2022-07-29T15:06:46;26.60;97.40
18613;DHT22;9436;52.152;21.032;2022-07-29T15:09:13;26.70;97.70
18613;DHT22;9436;52.152;21.032;2022-07-29T15:11:40;26.80;97.70
18613;DHT22;9436;52.152;21.032;2022-07-29T15:14:08;26.70;97.00
18613;DHT22;9436;52.152;21.032;2022-07-29T15:16:36;26.60;97.40
18613;DHT22;9436;52.152;21.032;2022-07-29T15:19:05;26.60;98.00
18613;DHT22;9436;52.152;21.032;2022-07-29T15:21:32;26.50;97.40
18613;DHT22;9436;52.152;21.032;2022-07-29T15:23:59;26.40;97.60
18613;DHT22;9436;52.152;21.032;2022-07-29T15:26:26;26.30;97.90
18613;DHT22;9436;52.152;21.032;2022-07-29T15:28:52;26.30;97.70
18613;DHT22;9436;52.152;21.032;2022-07-29T15:31:21;26.30;98.00
18613;DHT22;9436;52.152;21.032;2022-07-29T15:33:48;26.20;97.70
18613;DHT22;9436;52.152;21.032;2022-07-29T15:36:16;26.10;97.60
18613;DHT22;9436;52.152;21.032;2022-07-29T15:38:43;25.90;98.20
18613;DHT22;9436;52.152;21.032;2022-07-29T15:41:13;25.80;98.00
18613;DHT22;9436;52.152;21.032;2022-07-29T15:43:43;25.80;97.90
18613;DHT22;9436;52.152;21.032;2022-07-29T15:46:13;25.80;98.10
18613;DHT22;9436;52.152;21.032;2022-07-29T15:48:58;25.80;98.00
18613;DHT22;9436;52.152;21.032;2022-07-29T15:51:26;25.70;98.30